AUA27 EDDN-EDDF
Flight info
| Callsign | AUA27 |
|---|---|
| Flight time | 0h 26m |
| Altitude | 24000 |
| Route | SUKAD1G/28 SUKAD DCT PIWAW T159 SPESA SPESA5B |
| Aircraft | A20N/M-SDE2E3FGHIRWXY/LB1 |
Departure
| Time | 2026-04-14 08:19 |
|---|---|
| Airport | Nuremberg Airport (EDDN) |
Arrival
| Time | 2026-04-14 08:45 |
|---|---|
| Airport | Frankfurt Main Airport (EDDF) |
| Time | Latitude | Longitude | Altitude | Speed | Heading |
|---|---|---|---|---|---|
| 2026-04-14 08:02 | 49.49527 | 11.07661 | 1026 ft | 0 kts | 188° |
| 2026-04-14 08:10 | 49.49528 | 11.07661 | 1026 ft | 2 kts | 188° |
| 2026-04-14 08:11 | 49.49542 | 11.07665 | 1025 ft | 2 kts | 188° |
| 2026-04-14 08:11 | 49.49556 | 11.07668 | 1026 ft | 2 kts | 188° |
| 2026-04-14 08:11 | 49.49569 | 11.07671 | 1026 ft | 2 kts | 188° |
| 2026-04-14 08:11 | 49.49582 | 11.07672 | 1026 ft | 2 kts | 154° |
| 2026-04-14 08:12 | 49.49592 | 11.07660 | 1024 ft | 2 kts | 126° |
| 2026-04-14 08:12 | 49.49599 | 11.07643 | 1026 ft | 2 kts | 102° |
| 2026-04-14 08:12 | 49.49599 | 11.07640 | 1026 ft | 0 kts | 97° |
| 2026-04-14 08:13 | 49.49597 | 11.07662 | 1025 ft | 7 kts | 98° |
| 2026-04-14 08:13 | 49.49586 | 11.07771 | 1025 ft | 12 kts | 98° |
| 2026-04-14 08:14 | 49.49574 | 11.07897 | 1027 ft | 12 kts | 99° |
| 2026-04-14 08:14 | 49.49563 | 11.07998 | 1027 ft | 10 kts | 99° |
| 2026-04-14 08:14 | 49.49551 | 11.08120 | 1027 ft | 13 kts | 99° |
| 2026-04-14 08:14 | 49.49539 | 11.08239 | 1028 ft | 10 kts | 98° |
| 2026-04-14 08:15 | 49.49540 | 11.08325 | 1029 ft | 7 kts | 68° |
| 2026-04-14 08:15 | 49.49575 | 11.08351 | 1031 ft | 5 kts | 12° |
| 2026-04-14 08:15 | 49.49605 | 11.08372 | 1032 ft | 6 kts | 40° |
| 2026-04-14 08:15 | 49.49613 | 11.08443 | 1034 ft | 8 kts | 97° |
| 2026-04-14 08:16 | 49.49606 | 11.08540 | 1035 ft | 10 kts | 98° |
| 2026-04-14 08:16 | 49.49594 | 11.08650 | 1036 ft | 11 kts | 99° |
| 2026-04-14 08:16 | 49.49581 | 11.08769 | 1037 ft | 12 kts | 102° |
| 2026-04-14 08:16 | 49.49570 | 11.08902 | 1038 ft | 13 kts | 97° |
| 2026-04-14 08:17 | 49.49556 | 11.09041 | 1039 ft | 13 kts | 98° |
| 2026-04-14 08:17 | 49.49543 | 11.09178 | 1042 ft | 13 kts | 98° |
| 2026-04-14 08:17 | 49.49531 | 11.09308 | 1044 ft | 12 kts | 91° |
| 2026-04-14 08:17 | 49.49556 | 11.09417 | 1047 ft | 10 kts | 55° |
| 2026-04-14 08:18 | 49.49606 | 11.09518 | 1050 ft | 13 kts | 52° |
| 2026-04-14 08:18 | 49.49662 | 11.09576 | 1052 ft | 9 kts | 7° |
| 2026-04-14 08:18 | 49.49699 | 11.09514 | 1051 ft | 9 kts | 279° |
| 2026-04-14 08:18 | 49.49738 | 11.09114 | 1045 ft | 82 kts | 280° |
| 2026-04-14 08:19 | 49.49874 | 11.07842 | 1061 ft | 153 kts | 279° |
| 2026-04-14 08:19 | 49.50033 | 11.06191 | 1864 ft | 157 kts | 279° |
| 2026-04-14 08:19 | 49.50170 | 11.04520 | 2932 ft | 157 kts | 281° |
| 2026-04-14 08:19 | 49.50324 | 11.02771 | 3566 ft | 176 kts | 281° |
| 2026-04-14 08:20 | 49.50517 | 11.00805 | 4137 ft | 196 kts | 281° |
| 2026-04-14 08:20 | 49.50739 | 10.98625 | 4688 ft | 215 kts | 282° |
| 2026-04-14 08:20 | 49.50988 | 10.96234 | 5205 ft | 237 kts | 281° |
| 2026-04-14 08:20 | 49.51256 | 10.93655 | 5764 ft | 259 kts | 279° |
| 2026-04-14 08:21 | 49.51546 | 10.90857 | 6539 ft | 269 kts | 279° |
| 2026-04-14 08:21 | 49.51826 | 10.87999 | 6934 ft | 270 kts | 278° |
| 2026-04-14 08:21 | 49.52098 | 10.85155 | 7073 ft | 270 kts | 278° |
| 2026-04-14 08:21 | 49.52368 | 10.82285 | 7128 ft | 272 kts | 278° |
| 2026-04-14 08:22 | 49.52644 | 10.79380 | 7333 ft | 278 kts | 278° |
| 2026-04-14 08:22 | 49.52926 | 10.76422 | 8198 ft | 278 kts | 278° |
| 2026-04-14 08:22 | 49.53204 | 10.73500 | 9385 ft | 276 kts | 277° |
| 2026-04-14 08:22 | 49.53481 | 10.70577 | 10261 ft | 284 kts | 277° |
| 2026-04-14 08:23 | 49.53775 | 10.67458 | 10747 ft | 306 kts | 277° |
| 2026-04-14 08:23 | 49.54091 | 10.64095 | 11093 ft | 330 kts | 278° |
| 2026-04-14 08:23 | 49.54426 | 10.60550 | 11808 ft | 337 kts | 277° |
| 2026-04-14 08:23 | 49.54771 | 10.56970 | 12801 ft | 338 kts | 279° |
| 2026-04-14 08:24 | 49.55414 | 10.53500 | 13857 ft | 337 kts | 291° |
| 2026-04-14 08:24 | 49.56482 | 10.50298 | 14818 ft | 336 kts | 302° |
| 2026-04-14 08:24 | 49.57839 | 10.47374 | 15777 ft | 335 kts | 305° |
| 2026-04-14 08:24 | 49.59199 | 10.44472 | 16749 ft | 333 kts | 304° |
| 2026-04-14 08:25 | 49.60522 | 10.41625 | 17742 ft | 330 kts | 304° |
| 2026-04-14 08:25 | 49.61847 | 10.38764 | 18702 ft | 326 kts | 304° |
| 2026-04-14 08:25 | 49.63158 | 10.35934 | 19502 ft | 326 kts | 303° |
| 2026-04-14 08:25 | 49.64502 | 10.33022 | 19891 ft | 340 kts | 304° |
| 2026-04-14 08:26 | 49.65907 | 10.29971 | 20066 ft | 360 kts | 304° |
| 2026-04-14 08:26 | 49.67408 | 10.26715 | 20111 ft | 382 kts | 304° |
| 2026-04-14 08:26 | 49.68965 | 10.23339 | 20109 ft | 388 kts | 304° |
| 2026-04-14 08:26 | 49.70530 | 10.19945 | 20113 ft | 387 kts | 304° |
| 2026-04-14 08:27 | 49.72069 | 10.16604 | 20034 ft | 387 kts | 304° |
| 2026-04-14 08:27 | 49.73628 | 10.13213 | 19788 ft | 386 kts | 304° |
| 2026-04-14 08:27 | 49.75179 | 10.09832 | 19546 ft | 385 kts | 304° |
| 2026-04-14 08:27 | 49.76727 | 10.06451 | 19299 ft | 384 kts | 304° |
| 2026-04-14 08:28 | 49.78269 | 10.03083 | 19042 ft | 384 kts | 305° |
| 2026-04-14 08:28 | 49.80084 | 10.00059 | 18782 ft | 384 kts | 318° |
| 2026-04-14 08:28 | 49.82104 | 9.97370 | 18543 ft | 382 kts | 317° |
| 2026-04-14 08:28 | 49.84117 | 9.94701 | 18264 ft | 380 kts | 318° |
| 2026-04-14 08:29 | 49.86124 | 9.92062 | 17702 ft | 377 kts | 318° |
| 2026-04-14 08:29 | 49.88120 | 9.89452 | 17119 ft | 374 kts | 318° |
| 2026-04-14 08:29 | 49.90076 | 9.86902 | 16555 ft | 370 kts | 318° |
| 2026-04-14 08:29 | 49.92037 | 9.84345 | 15996 ft | 367 kts | 318° |
| 2026-04-14 08:30 | 49.93980 | 9.81811 | 15484 ft | 363 kts | 318° |
| 2026-04-14 08:30 | 49.95908 | 9.79293 | 14991 ft | 361 kts | 318° |
| 2026-04-14 08:30 | 49.97820 | 9.76792 | 14505 ft | 358 kts | 318° |
| 2026-04-14 08:30 | 49.99720 | 9.74306 | 14024 ft | 355 kts | 318° |
| 2026-04-14 08:31 | 50.01602 | 9.71840 | 13483 ft | 353 kts | 318° |
| 2026-04-14 08:31 | 50.05317 | 9.66965 | 12272 ft | 344 kts | 318° |
| 2026-04-14 08:31 | 50.07133 | 9.64577 | 11687 ft | 340 kts | 318° |
| 2026-04-14 08:32 | 50.08903 | 9.62249 | 11127 ft | 336 kts | 318° |
| 2026-04-14 08:32 | 50.10685 | 9.59902 | 10559 ft | 334 kts | 318° |
| 2026-04-14 08:32 | 50.12438 | 9.57591 | 10004 ft | 326 kts | 318° |
| 2026-04-14 08:32 | 50.14150 | 9.55332 | 9392 ft | 318 kts | 318° |
| 2026-04-14 08:33 | 50.15818 | 9.53130 | 8792 ft | 310 kts | 318° |
| 2026-04-14 08:33 | 50.17445 | 9.50973 | 8201 ft | 304 kts | 318° |
| 2026-04-14 08:33 | 50.19041 | 9.48860 | 7619 ft | 298 kts | 319° |
| 2026-04-14 08:33 | 50.20606 | 9.46782 | 7055 ft | 293 kts | 319° |
| 2026-04-14 08:34 | 50.22151 | 9.44730 | 6493 ft | 290 kts | 319° |
| 2026-04-14 08:34 | 50.23596 | 9.42543 | 5898 ft | 292 kts | 306° |
| 2026-04-14 08:34 | 50.24393 | 9.39614 | 5330 ft | 298 kts | 279° |
| 2026-04-14 08:34 | 50.24257 | 9.36474 | 5064 ft | 292 kts | 255° |
| 2026-04-14 08:35 | 50.23600 | 9.33586 | 4981 ft | 270 kts | 250° |
| 2026-04-14 08:35 | 50.22916 | 9.30990 | 4964 ft | 247 kts | 249° |
| 2026-04-14 08:35 | 50.22292 | 9.28595 | 4982 ft | 236 kts | 250° |
| 2026-04-14 08:35 | 50.21700 | 9.26203 | 4974 ft | 235 kts | 251° |
| 2026-04-14 08:36 | 50.21133 | 9.23815 | 4977 ft | 235 kts | 252° |
| 2026-04-14 08:36 | 50.20578 | 9.21426 | 4978 ft | 234 kts | 252° |
| 2026-04-14 08:36 | 50.20025 | 9.19021 | 4983 ft | 236 kts | 253° |
| 2026-04-14 08:36 | 50.19464 | 9.16586 | 4983 ft | 239 kts | 253° |
| 2026-04-14 08:37 | 50.18939 | 9.14140 | 4988 ft | 237 kts | 255° |
| 2026-04-14 08:37 | 50.18441 | 9.11727 | 4985 ft | 236 kts | 254° |
| 2026-04-14 08:37 | 50.17897 | 9.09296 | 4986 ft | 238 kts | 252° |
| 2026-04-14 08:37 | 50.17326 | 9.06875 | 4991 ft | 237 kts | 252° |
| 2026-04-14 08:38 | 50.16752 | 9.04460 | 4980 ft | 238 kts | 252° |
| 2026-04-14 08:38 | 50.16188 | 9.02095 | 4985 ft | 224 kts | 252° |
| 2026-04-14 08:38 | 50.15666 | 8.99898 | 4986 ft | 208 kts | 252° |
| 2026-04-14 08:38 | 50.15171 | 8.97815 | 4994 ft | 208 kts | 253° |
| 2026-04-14 08:39 | 50.14668 | 8.95691 | 4988 ft | 207 kts | 253° |
| 2026-04-14 08:39 | 50.14168 | 8.93589 | 4993 ft | 207 kts | 252° |
| 2026-04-14 08:39 | 50.13673 | 8.91506 | 4983 ft | 201 kts | 252° |
| 2026-04-14 08:39 | 50.13201 | 8.89526 | 5023 ft | 195 kts | 253° |
| 2026-04-14 08:40 | 50.12732 | 8.87554 | 4996 ft | 194 kts | 252° |
| 2026-04-14 08:40 | 50.12262 | 8.85577 | 4974 ft | 195 kts | 252° |
| 2026-04-14 08:40 | 50.11790 | 8.83593 | 4784 ft | 195 kts | 253° |
| 2026-04-14 08:40 | 50.11318 | 8.81612 | 4494 ft | 196 kts | 253° |
| 2026-04-14 08:41 | 50.10847 | 8.79635 | 4214 ft | 194 kts | 253° |
| 2026-04-14 08:41 | 50.10380 | 8.77673 | 3927 ft | 193 kts | 253° |
| 2026-04-14 08:41 | 50.09917 | 8.75733 | 3647 ft | 189 kts | 254° |
| 2026-04-14 08:41 | 50.09464 | 8.73835 | 3369 ft | 185 kts | 254° |
| 2026-04-14 08:42 | 50.09021 | 8.71972 | 3103 ft | 182 kts | 253° |
| 2026-04-14 08:42 | 50.08584 | 8.70145 | 2839 ft | 177 kts | 253° |
| 2026-04-14 08:42 | 50.08176 | 8.68442 | 2581 ft | 163 kts | 253° |
| 2026-04-14 08:42 | 50.07797 | 8.66845 | 2356 ft | 152 kts | 253° |
| 2026-04-14 08:43 | 50.07441 | 8.65350 | 2143 ft | 141 kts | 253° |
| 2026-04-14 08:43 | 50.07109 | 8.63963 | 1907 ft | 133 kts | 253° |
| 2026-04-14 08:43 | 50.06780 | 8.62605 | 1656 ft | 136 kts | 253° |
| 2026-04-14 08:43 | 50.06464 | 8.61243 | 1428 ft | 133 kts | 253° |
| 2026-04-14 08:44 | 50.06142 | 8.59893 | 1212 ft | 133 kts | 253° |
| 2026-04-14 08:44 | 50.05818 | 8.58551 | 1003 ft | 132 kts | 251° |
| 2026-04-14 08:44 | 50.05499 | 8.57224 | 839 ft | 131 kts | 252° |
| 2026-04-14 08:44 | 50.05176 | 8.55902 | 648 ft | 130 kts | 251° |
| 2026-04-14 08:45 | 50.04871 | 8.54591 | 476 ft | 129 kts | 253° |
| 2026-04-14 08:45 | 50.04560 | 8.53286 | 380 ft | 129 kts | 253° |
| 2026-04-14 08:45 | 50.04273 | 8.52075 | 347 ft | 81 kts | 248° |
| 2026-04-14 08:45 | 50.04171 | 8.51688 | 350 ft | 20 kts | 240° |
| 2026-04-14 08:46 | 50.04075 | 8.51504 | 349 ft | 24 kts | 227° |
| 2026-04-14 08:46 | 50.03993 | 8.51398 | 352 ft | 10 kts | 218° |
| 2026-04-14 08:46 | 50.03989 | 8.51393 | 351 ft | 0 kts | 219° |
| 2026-04-14 08:46 | 50.03972 | 8.51375 | 350 ft | 8 kts | 208° |
| 2026-04-14 08:47 | 50.03910 | 8.51407 | 345 ft | 12 kts | 109° |
| 2026-04-14 08:47 | 50.03931 | 8.51544 | 352 ft | 14 kts | 74° |
| 2026-04-14 08:47 | 50.03966 | 8.51703 | 351 ft | 17 kts | 69° |
| 2026-04-14 08:47 | 50.04011 | 8.51890 | 354 ft | 20 kts | 70° |
| 2026-04-14 08:48 | 50.04063 | 8.52103 | 349 ft | 22 kts | 66° |
| 2026-04-14 08:48 | 50.04125 | 8.52335 | 348 ft | 24 kts | 74° |
| 2026-04-14 08:48 | 50.04179 | 8.52589 | 351 ft | 26 kts | 70° |
| 2026-04-14 08:48 | 50.04234 | 8.52820 | 351 ft | 24 kts | 69° |
| 2026-04-14 08:49 | 50.04292 | 8.53061 | 353 ft | 24 kts | 70° |
| 2026-04-14 08:49 | 50.04350 | 8.53301 | 345 ft | 23 kts | 69° |
| 2026-04-14 08:49 | 50.04396 | 8.53529 | 350 ft | 21 kts | 80° |
| 2026-04-14 08:49 | 50.04412 | 8.53719 | 353 ft | 17 kts | 84° |
| 2026-04-14 08:50 | 50.04425 | 8.53922 | 345 ft | 20 kts | 84° |
| 2026-04-14 08:50 | 50.04440 | 8.54154 | 349 ft | 23 kts | 84° |
| 2026-04-14 08:50 | 50.04452 | 8.54411 | 345 ft | 23 kts | 89° |
| 2026-04-14 08:50 | 50.04413 | 8.54633 | 353 ft | 18 kts | 122° |
| 2026-04-14 08:51 | 50.04401 | 8.54658 | 354 ft | 2 kts | 126° |
| 2026-04-14 08:51 | 50.04378 | 8.54698 | 352 ft | 10 kts | 136° |
| 2026-04-14 08:51 | 50.04301 | 8.54776 | 347 ft | 16 kts | 154° |
| 2026-04-14 08:51 | 50.04185 | 8.54845 | 353 ft | 19 kts | 160° |
| 2026-04-14 08:52 | 50.04067 | 8.54912 | 353 ft | 17 kts | 159° |
| 2026-04-14 08:52 | 50.03954 | 8.54979 | 350 ft | 16 kts | 159° |
| 2026-04-14 08:52 | 50.03862 | 8.55041 | 354 ft | 15 kts | 136° |
| 2026-04-14 08:52 | 50.03872 | 8.55201 | 353 ft | 17 kts | 68° |
| 2026-04-14 08:53 | 50.03910 | 8.55372 | 353 ft | 15 kts | 71° |
| 2026-04-14 08:53 | 50.03953 | 8.55539 | 352 ft | 17 kts | 64° |
| 2026-04-14 08:53 | 50.03996 | 8.55726 | 355 ft | 20 kts | 69° |
| 2026-04-14 08:53 | 50.04045 | 8.55932 | 349 ft | 21 kts | 70° |
| 2026-04-14 08:54 | 50.04092 | 8.56129 | 347 ft | 19 kts | 69° |
| 2026-04-14 08:54 | 50.04134 | 8.56270 | 348 ft | 11 kts | 34° |
| 2026-04-14 08:54 | 50.04211 | 8.56255 | 348 ft | 12 kts | 340° |
| 2026-04-14 08:54 | 50.04242 | 8.56239 | 350 ft | 6 kts | 341° |
| 2026-04-14 08:55 | 50.04286 | 8.56183 | 347 ft | 10 kts | 279° |
| 2026-04-14 08:55 | 50.04316 | 8.56072 | 354 ft | 13 kts | 328° |
| 2026-04-14 08:55 | 50.04396 | 8.56033 | 352 ft | 11 kts | 354° |
| 2026-04-14 08:55 | 50.04452 | 8.56115 | 347 ft | 13 kts | 68° |
| 2026-04-14 08:56 | 50.04485 | 8.56254 | 354 ft | 12 kts | 70° |
| 2026-04-14 08:56 | 50.04506 | 8.56340 | 353 ft | 14 kts | 70° |
| 2026-04-14 08:56 | 50.04541 | 8.56448 | 355 ft | 6 kts | 71° |
| 2026-04-14 08:56 | 50.04527 | 8.56513 | 350 ft | 7 kts | 127° |
| 2026-04-14 08:57 | 50.04498 | 8.56532 | 361 ft | 3 kts | 164° |
| 2026-04-14 08:57 | 50.04486 | 8.56538 | 351 ft | 2 kts | 163° |